sensor_id;sensor_type;location;lat;lon;timestamp;P1;durP1;ratioP1;P2;durP2;ratioP2
7613;SDS011;3848;42.016;23.098;2022-10-15T00:01:06;17.77;;;16.37;;
7613;SDS011;3848;42.016;23.098;2022-10-15T00:03:37;16.83;;;15.80;;
7613;SDS011;3848;42.016;23.098;2022-10-15T00:06:05;16.67;;;15.50;;
7613;SDS011;3848;42.016;23.098;2022-10-15T00:08:32;16.17;;;15.17;;
7613;SDS011;3848;42.016;23.098;2022-10-15T00:11:05;16.37;;;15.37;;
7613;SDS011;3848;42.016;23.098;2022-10-15T00:13:34;16.10;;;15.10;;
7613;SDS011;3848;42.016;23.098;2022-10-15T00:16:01;17.67;;;16.47;;
7613;SDS011;3848;42.016;23.098;2022-10-15T00:18:29;16.37;;;15.27;;
7613;SDS011;3848;42.016;23.098;2022-10-15T00:20:56;18.93;;;17.67;;
7613;SDS011;3848;42.016;23.098;2022-10-15T00:23:23;15.73;;;14.43;;
7613;SDS011;3848;42.016;23.098;2022-10-15T00:25:59;14.97;;;14.07;;
7613;SDS011;3848;42.016;23.098;2022-10-15T00:28:28;16.60;;;15.57;;
7613;SDS011;3848;42.016;23.098;2022-10-15T00:30:58;16.67;;;15.47;;
7613;SDS011;3848;42.016;23.098;2022-10-15T00:33:26;15.63;;;14.47;;
7613;SDS011;3848;42.016;23.098;2022-10-15T00:35:59;16.23;;;15.23;;
7613;SDS011;3848;42.016;23.098;2022-10-15T00:38:27;17.17;;;15.97;;
7613;SDS011;3848;42.016;23.098;2022-10-15T00:40:54;17.30;;;16.10;;
7613;SDS011;3848;42.016;23.098;2022-10-15T00:43:39;17.10;;;15.77;;
7613;SDS011;3848;42.016;23.098;2022-10-15T00:46:15;16.43;;;15.43;;
7613;SDS011;3848;42.016;23.098;2022-10-15T00:48:46;16.37;;;15.37;;
7613;SDS011;3848;42.016;23.098;2022-10-15T00:51:15;15.80;;;14.70;;
7613;SDS011;3848;42.016;23.098;2022-10-15T00:53:44;16.97;;;15.57;;
7613;SDS011;3848;42.016;23.098;2022-10-15T00:56:12;16.40;;;15.27;;
7613;SDS011;3848;42.016;23.098;2022-10-15T00:58:44;16.23;;;15.13;;
7613;SDS011;3848;42.016;23.098;2022-10-15T01:01:11;19.03;;;17.63;;
7613;SDS011;3848;42.016;23.098;2022-10-15T01:03:38;16.50;;;15.40;;
7613;SDS011;3848;42.016;23.098;2022-10-15T01:06:05;17.27;;;16.10;;
7613;SDS011;3848;42.016;23.098;2022-10-15T01:08:32;17.23;;;16.03;;
7613;SDS011;3848;42.016;23.098;2022-10-15T01:11:02;17.23;;;15.67;;
7613;SDS011;3848;42.016;23.098;2022-10-15T01:13:37;16.17;;;15.17;;
7613;SDS011;3848;42.016;23.098;2022-10-15T01:16:15;16.30;;;15.07;;
7613;SDS011;3848;42.016;23.098;2022-10-15T01:18:50;16.33;;;15.30;;
7613;SDS011;3848;42.016;23.098;2022-10-15T01:21:24;16.80;;;15.27;;
7613;SDS011;3848;42.016;23.098;2022-10-15T01:32:53;16.33;;;15.13;;
7613;SDS011;3848;42.016;23.098;2022-10-15T01:35:29;18.10;;;16.90;;
7613;SDS011;3848;42.016;23.098;2022-10-15T01:38:03;17.43;;;16.07;;
7613;SDS011;3848;42.016;23.098;2022-10-15T01:40:43;17.27;;;16.10;;
7613;SDS011;3848;42.016;23.098;2022-10-15T01:43:14;16.23;;;15.13;;
7613;SDS011;3848;42.016;23.098;2022-10-15T01:45:48;16.13;;;15.07;;
7613;SDS011;3848;42.016;23.098;2022-10-15T01:48:20;15.90;;;14.80;;
7613;SDS011;3848;42.016;23.098;2022-10-15T01:50:52;15.07;;;14.17;;
7613;SDS011;3848;42.016;23.098;2022-10-15T01:53:23;15.60;;;14.60;;
7613;SDS011;3848;42.016;23.098;2022-10-15T01:55:52;15.10;;;14.30;;
7613;SDS011;3848;42.016;23.098;2022-10-15T01:58:22;17.07;;;15.97;;
7613;SDS011;3848;42.016;23.098;2022-10-15T02:00:52;16.13;;;15.07;;
7613;SDS011;3848;42.016;23.098;2022-10-15T02:03:21;15.57;;;14.57;;
7613;SDS011;3848;42.016;23.098;2022-10-15T02:05:49;15.60;;;14.60;;
7613;SDS011;3848;42.016;23.098;2022-10-15T02:08:24;20.63;;;16.10;;
7613;SDS011;3848;42.016;23.098;2022-10-15T02:10:59;15.50;;;14.50;;
7613;SDS011;3848;42.016;23.098;2022-10-15T02:13:31;14.93;;;13.83;;
7613;SDS011;3848;42.016;23.098;2022-10-15T02:16:10;15.00;;;14.00;;
7613;SDS011;3848;42.016;23.098;2022-10-15T02:18:39;14.67;;;13.63;;
7613;SDS011;3848;42.016;23.098;2022-10-15T02:21:13;15.70;;;14.30;;
7613;SDS011;3848;42.016;23.098;2022-10-15T02:23:45;16.60;;;15.10;;
7613;SDS011;3848;42.016;23.098;2022-10-15T02:26:16;15.30;;;13.90;;
7613;SDS011;3848;42.016;23.098;2022-10-15T02:28:46;15.30;;;14.23;;
7613;SDS011;3848;42.016;23.098;2022-10-15T02:31:19;14.70;;;13.57;;
7613;SDS011;3848;42.016;23.098;2022-10-15T02:33:48;15.83;;;14.83;;
7613;SDS011;3848;42.016;23.098;2022-10-15T02:36:17;15.00;;;13.97;;
7613;SDS011;3848;42.016;23.098;2022-10-15T02:38:45;15.77;;;14.57;;
7613;SDS011;3848;42.016;23.098;2022-10-15T02:41:14;15.10;;;14.10;;
7613;SDS011;3848;42.016;23.098;2022-10-15T02:43:40;15.67;;;14.47;;
7613;SDS011;3848;42.016;23.098;2022-10-15T02:46:08;14.90;;;14.03;;
7613;SDS011;3848;42.016;23.098;2022-10-15T02:48:38;16.20;;;15.07;;
7613;SDS011;3848;42.016;23.098;2022-10-15T02:51:05;15.63;;;14.53;;
7613;SDS011;3848;42.016;23.098;2022-10-15T02:53:32;16.07;;;14.97;;
7613;SDS011;3848;42.016;23.098;2022-10-15T02:55:59;15.37;;;14.27;;
7613;SDS011;3848;42.016;23.098;2022-10-15T02:58:26;16.90;;;15.30;;
7613;SDS011;3848;42.016;23.098;2022-10-15T03:00:55;16.77;;;15.47;;
7613;SDS011;3848;42.016;23.098;2022-10-15T03:03:21;16.47;;;15.27;;
7613;SDS011;3848;42.016;23.098;2022-10-15T03:05:50;17.10;;;15.80;;
7613;SDS011;3848;42.016;23.098;2022-10-15T03:08:16;17.07;;;15.87;;
7613;SDS011;3848;42.016;23.098;2022-10-15T03:10:44;16.40;;;15.30;;
7613;SDS011;3848;42.016;23.098;2022-10-15T03:13:11;17.00;;;15.63;;
7613;SDS011;3848;42.016;23.098;2022-10-15T03:15:38;17.10;;;15.83;;
7613;SDS011;3848;42.016;23.098;2022-10-15T03:18:05;15.20;;;13.97;;
7613;SDS011;3848;42.016;23.098;2022-10-15T03:20:33;15.47;;;14.47;;
7613;SDS011;3848;42.016;23.098;2022-10-15T03:23:01;16.10;;;14.70;;
7613;SDS011;3848;42.016;23.098;2022-10-15T03:25:28;15.83;;;14.73;;
7613;SDS011;3848;42.016;23.098;2022-10-15T03:27:55;15.93;;;14.73;;
7613;SDS011;3848;42.016;23.098;2022-10-15T03:30:22;16.97;;;15.77;;
7613;SDS011;3848;42.016;23.098;2022-10-15T03:32:48;16.40;;;15.40;;
7613;SDS011;3848;42.016;23.098;2022-10-15T03:35:15;14.97;;;13.97;;
7613;SDS011;3848;42.016;23.098;2022-10-15T03:37:42;15.37;;;14.47;;
7613;SDS011;3848;42.016;23.098;2022-10-15T03:40:11;16.83;;;15.63;;
7613;SDS011;3848;42.016;23.098;2022-10-15T03:42:38;16.60;;;15.40;;
7613;SDS011;3848;42.016;23.098;2022-10-15T03:45:05;16.93;;;15.43;;
7613;SDS011;3848;42.016;23.098;2022-10-15T03:47:33;16.93;;;15.83;;
7613;SDS011;3848;42.016;23.098;2022-10-15T03:49:59;16.77;;;15.50;;
7613;SDS011;3848;42.016;23.098;2022-10-15T03:52:26;17.30;;;16.00;;
7613;SDS011;3848;42.016;23.098;2022-10-15T03:54:53;16.33;;;15.07;;
7613;SDS011;3848;42.016;23.098;2022-10-15T03:57:21;17.13;;;15.73;;
7613;SDS011;3848;42.016;23.098;2022-10-15T03:59:48;16.23;;;15.13;;
7613;SDS011;3848;42.016;23.098;2022-10-15T04:02:15;16.43;;;15.23;;
7613;SDS011;3848;42.016;23.098;2022-10-15T04:04:41;15.40;;;14.20;;
7613;SDS011;3848;42.016;23.098;2022-10-15T04:07:08;16.60;;;15.27;;
7613;SDS011;3848;42.016;23.098;2022-10-15T04:09:35;16.80;;;15.60;;
7613;SDS011;3848;42.016;23.098;2022-10-15T04:12:02;17.60;;;16.30;;
7613;SDS011;3848;42.016;23.098;2022-10-15T04:14:30;16.80;;;15.50;;
7613;SDS011;3848;42.016;23.098;2022-10-15T04:16:57;16.80;;;15.47;;
7613;SDS011;3848;42.016;23.098;2022-10-15T04:19:24;16.90;;;15.77;;
7613;SDS011;3848;42.016;23.098;2022-10-15T04:21:51;17.37;;;15.30;;
7613;SDS011;3848;42.016;23.098;2022-10-15T04:24:17;16.43;;;15.17;;
7613;SDS011;3848;42.016;23.098;2022-10-15T04:26:44;18.03;;;16.63;;
7613;SDS011;3848;42.016;23.098;2022-10-15T04:29:11;16.77;;;15.10;;
7613;SDS011;3848;42.016;23.098;2022-10-15T04:31:39;16.43;;;15.20;;
7613;SDS011;3848;42.016;23.098;2022-10-15T04:34:07;16.70;;;15.60;;
7613;SDS011;3848;42.016;23.098;2022-10-15T04:36:34;16.33;;;15.00;;
7613;SDS011;3848;42.016;23.098;2022-10-15T04:39:01;15.97;;;14.97;;
7613;SDS011;3848;42.016;23.098;2022-10-15T04:41:28;17.37;;;16.07;;
7613;SDS011;3848;42.016;23.098;2022-10-15T04:43:56;16.63;;;15.47;;
7613;SDS011;3848;42.016;23.098;2022-10-15T04:46:23;15.57;;;14.57;;
7613;SDS011;3848;42.016;23.098;2022-10-15T04:48:51;17.23;;;16.03;;
7613;SDS011;3848;42.016;23.098;2022-10-15T04:51:22;17.20;;;15.87;;
7613;SDS011;3848;42.016;23.098;2022-10-15T04:53:50;17.10;;;15.57;;
7613;SDS011;3848;42.016;23.098;2022-10-15T04:56:18;16.60;;;15.40;;
7613;SDS011;3848;42.016;23.098;2022-10-15T04:58:46;16.10;;;14.90;;
7613;SDS011;3848;42.016;23.098;2022-10-15T05:01:14;16.27;;;15.03;;
7613;SDS011;3848;42.016;23.098;2022-10-15T05:03:43;17.40;;;16.20;;
7613;SDS011;3848;42.016;23.098;2022-10-15T05:06:13;17.27;;;15.87;;
7613;SDS011;3848;42.016;23.098;2022-10-15T05:08:41;17.40;;;16.17;;
7613;SDS011;3848;42.016;23.098;2022-10-15T05:11:09;17.00;;;15.87;;
7613;SDS011;3848;42.016;23.098;2022-10-15T05:13:37;16.20;;;15.20;;
7613;SDS011;3848;42.016;23.098;2022-10-15T05:16:08;17.87;;;16.37;;
7613;SDS011;3848;42.016;23.098;2022-10-15T05:18:37;17.73;;;16.50;;
7613;SDS011;3848;42.016;23.098;2022-10-15T05:21:04;18.33;;;17.00;;
7613;SDS011;3848;42.016;23.098;2022-10-15T05:23:33;17.77;;;16.23;;
7613;SDS011;3848;42.016;23.098;2022-10-15T05:26:01;19.03;;;17.50;;
7613;SDS011;3848;42.016;23.098;2022-10-15T05:28:29;18.50;;;17.20;;
7613;SDS011;3848;42.016;23.098;2022-10-15T05:31:01;18.37;;;17.13;;
7613;SDS011;3848;42.016;23.098;2022-10-15T05:33:29;18.13;;;16.83;;
7613;SDS011;3848;42.016;23.098;2022-10-15T05:35:56;18.07;;;16.77;;
7613;SDS011;3848;42.016;23.098;2022-10-15T05:38:22;19.03;;;17.60;;
7613;SDS011;3848;42.016;23.098;2022-10-15T05:40:51;17.53;;;16.27;;
7613;SDS011;3848;42.016;23.098;2022-10-15T05:43:17;21.63;;;19.63;;
7613;SDS011;3848;42.016;23.098;2022-10-15T05:45:44;20.03;;;18.53;;
7613;SDS011;3848;42.016;23.098;2022-10-15T05:48:11;23.47;;;21.07;;
7613;SDS011;3848;42.016;23.098;2022-10-15T05:50:39;19.63;;;17.93;;
7613;SDS011;3848;42.016;23.098;2022-10-15T05:53:05;18.13;;;16.80;;
7613;SDS011;3848;42.016;23.098;2022-10-15T05:55:32;17.57;;;16.07;;
7613;SDS011;3848;42.016;23.098;2022-10-15T05:58:01;17.93;;;16.40;;
7613;SDS011;3848;42.016;23.098;2022-10-15T06:00:28;18.70;;;16.83;;
7613;SDS011;3848;42.016;23.098;2022-10-15T06:02:56;18.57;;;16.97;;
7613;SDS011;3848;42.016;23.098;2022-10-15T06:05:23;19.17;;;17.50;;
7613;SDS011;3848;42.016;23.098;2022-10-15T06:07:50;18.43;;;17.13;;
7613;SDS011;3848;42.016;23.098;2022-10-15T06:10:17;20.67;;;19.07;;
7613;SDS011;3848;42.016;23.098;2022-10-15T06:12:47;19.90;;;18.20;;
7613;SDS011;3848;42.016;23.098;2022-10-15T06:15:17;19.43;;;17.87;;
7613;SDS011;3848;42.016;23.098;2022-10-15T06:17:44;20.37;;;18.53;;
7613;SDS011;3848;42.016;23.098;2022-10-15T06:20:11;18.53;;;17.17;;
7613;SDS011;3848;42.016;23.098;2022-10-15T06:22:38;19.27;;;17.57;;
7613;SDS011;3848;42.016;23.098;2022-10-15T06:25:06;17.27;;;16.13;;
7613;SDS011;3848;42.016;23.098;2022-10-15T06:27:33;18.97;;;17.47;;
7613;SDS011;3848;42.016;23.098;2022-10-15T06:30:00;17.83;;;16.40;;
7613;SDS011;3848;42.016;23.098;2022-10-15T06:32:28;19.33;;;17.47;;
7613;SDS011;3848;42.016;23.098;2022-10-15T06:34:55;17.27;;;15.80;;
7613;SDS011;3848;42.016;23.098;2022-10-15T06:37:22;19.30;;;17.43;;
7613;SDS011;3848;42.016;23.098;2022-10-15T06:39:49;26.80;;;19.00;;
7613;SDS011;3848;42.016;23.098;2022-10-15T06:42:16;17.80;;;16.43;;
7613;SDS011;3848;42.016;23.098;2022-10-15T06:44:42;17.27;;;15.87;;
7613;SDS011;3848;42.016;23.098;2022-10-15T06:47:09;17.90;;;16.37;;
7613;SDS011;3848;42.016;23.098;2022-10-15T06:49:37;17.87;;;16.47;;
7613;SDS011;3848;42.016;23.098;2022-10-15T06:52:04;16.90;;;15.70;;
7613;SDS011;3848;42.016;23.098;2022-10-15T06:54:31;18.70;;;17.30;;
7613;SDS011;3848;42.016;23.098;2022-10-15T06:56:58;18.03;;;16.80;;
7613;SDS011;3848;42.016;23.098;2022-10-15T06:59:25;18.47;;;17.17;;
7613;SDS011;3848;42.016;23.098;2022-10-15T07:01:52;18.20;;;16.73;;
7613;SDS011;3848;42.016;23.098;2022-10-15T07:04:18;20.13;;;18.73;;
7613;SDS011;3848;42.016;23.098;2022-10-15T07:06:47;20.17;;;18.53;;
7613;SDS011;3848;42.016;23.098;2022-10-15T07:09:13;22.53;;;20.93;;
7613;SDS011;3848;42.016;23.098;2022-10-15T07:11:40;21.43;;;19.87;;
7613;SDS011;3848;42.016;23.098;2022-10-15T07:14:07;23.40;;;21.30;;
7613;SDS011;3848;42.016;23.098;2022-10-15T07:16:34;22.27;;;20.40;;
7613;SDS011;3848;42.016;23.098;2022-10-15T07:19:03;21.50;;;20.10;;
7613;SDS011;3848;42.016;23.098;2022-10-15T07:21:30;22.40;;;20.70;;
7613;SDS011;3848;42.016;23.098;2022-10-15T07:23:58;20.67;;;19.20;;
7613;SDS011;3848;42.016;23.098;2022-10-15T07:26:25;21.47;;;20.17;;
7613;SDS011;3848;42.016;23.098;2022-10-15T07:28:53;22.53;;;20.83;;
7613;SDS011;3848;42.016;23.098;2022-10-15T07:31:20;20.13;;;18.67;;
7613;SDS011;3848;42.016;23.098;2022-10-15T07:33:47;19.33;;;17.97;;
7613;SDS011;3848;42.016;23.098;2022-10-15T07:36:14;20.50;;;18.90;;
7613;SDS011;3848;42.016;23.098;2022-10-15T07:38:41;22.10;;;20.23;;
7613;SDS011;3848;42.016;23.098;2022-10-15T07:41:09;22.30;;;20.70;;
7613;SDS011;3848;42.016;23.098;2022-10-15T07:43:36;21.60;;;19.80;;
7613;SDS011;3848;42.016;23.098;2022-10-15T07:46:04;20.70;;;18.97;;
7613;SDS011;3848;42.016;23.098;2022-10-15T07:48:31;19.03;;;17.63;;
7613;SDS011;3848;42.016;23.098;2022-10-15T07:50:59;19.43;;;18.13;;
7613;SDS011;3848;42.016;23.098;2022-10-15T07:53:28;18.90;;;17.30;;
7613;SDS011;3848;42.016;23.098;2022-10-15T07:55:57;19.90;;;18.13;;
7613;SDS011;3848;42.016;23.098;2022-10-15T07:58:26;18.70;;;17.37;;
7613;SDS011;3848;42.016;23.098;2022-10-15T08:00:54;21.27;;;19.57;;
7613;SDS011;3848;42.016;23.098;2022-10-15T08:03:24;22.60;;;20.63;;
7613;SDS011;3848;42.016;23.098;2022-10-15T08:05:51;21.23;;;19.53;;
7613;SDS011;3848;42.016;23.098;2022-10-15T08:08:19;20.33;;;18.43;;
7613;SDS011;3848;42.016;23.098;2022-10-15T08:10:47;20.83;;;18.73;;
7613;SDS011;3848;42.016;23.098;2022-10-15T08:13:14;19.20;;;17.53;;
7613;SDS011;3848;42.016;23.098;2022-10-15T08:15:42;18.33;;;16.70;;
7613;SDS011;3848;42.016;23.098;2022-10-15T08:18:09;18.00;;;16.40;;
7613;SDS011;3848;42.016;23.098;2022-10-15T08:20:36;17.73;;;15.53;;
7613;SDS011;3848;42.016;23.098;2022-10-15T08:23:03;17.33;;;15.97;;
7613;SDS011;3848;42.016;23.098;2022-10-15T08:25:30;21.07;;;18.00;;
7613;SDS011;3848;42.016;23.098;2022-10-15T08:27:57;22.47;;;19.27;;
7613;SDS011;3848;42.016;23.098;2022-10-15T08:30:24;19.97;;;17.80;;
7613;SDS011;3848;42.016;23.098;2022-10-15T08:32:52;19.10;;;17.17;;
7613;SDS011;3848;42.016;23.098;2022-10-15T08:35:19;18.40;;;16.63;;
7613;SDS011;3848;42.016;23.098;2022-10-15T08:37:46;16.87;;;15.47;;
7613;SDS011;3848;42.016;23.098;2022-10-15T08:40:13;15.77;;;14.57;;
7613;SDS011;3848;42.016;23.098;2022-10-15T08:42:42;16.03;;;14.77;;
7613;SDS011;3848;42.016;23.098;2022-10-15T08:45:12;16.87;;;15.50;;
7613;SDS011;3848;42.016;23.098;2022-10-15T08:47:42;16.57;;;15.23;;
7613;SDS011;3848;42.016;23.098;2022-10-15T08:50:18;17.90;;;16.73;;
7613;SDS011;3848;42.016;23.098;2022-10-15T08:52:51;16.27;;;15.07;;
7613;SDS011;3848;42.016;23.098;2022-10-15T08:55:21;15.07;;;14.17;;
7613;SDS011;3848;42.016;23.098;2022-10-15T08:57:50;14.70;;;13.70;;
7613;SDS011;3848;42.016;23.098;2022-10-15T09:00:23;15.77;;;14.80;;
7613;SDS011;3848;42.016;23.098;2022-10-15T09:02:56;15.60;;;14.53;;
7613;SDS011;3848;42.016;23.098;2022-10-15T09:05:31;15.77;;;14.30;;
7613;SDS011;3848;42.016;23.098;2022-10-15T09:08:11;16.63;;;15.47;;
7613;SDS011;3848;42.016;23.098;2022-10-15T09:10:46;16.50;;;15.30;;
7613;SDS011;3848;42.016;23.098;2022-10-15T09:13:19;19.67;;;18.37;;
7613;SDS011;3848;42.016;23.098;2022-10-15T09:15:51;19.13;;;17.93;;
7613;SDS011;3848;42.016;23.098;2022-10-15T09:18:22;18.60;;;17.47;;
7613;SDS011;3848;42.016;23.098;2022-10-15T09:20:53;17.53;;;16.63;;
7613;SDS011;3848;42.016;23.098;2022-10-15T09:23:22;18.53;;;17.20;;
7613;SDS011;3848;42.016;23.098;2022-10-15T09:25:53;15.90;;;14.80;;
7613;SDS011;3848;42.016;23.098;2022-10-15T09:28:28;18.03;;;17.00;;
7613;SDS011;3848;42.016;23.098;2022-10-15T09:31:11;17.37;;;16.47;;
7613;SDS011;3848;42.016;23.098;2022-10-15T09:33:44;21.10;;;19.97;;
7613;SDS011;3848;42.016;23.098;2022-10-15T09:36:20;21.30;;;20.10;;
7613;SDS011;3848;42.016;23.098;2022-10-15T09:39:02;19.17;;;18.10;;
7613;SDS011;3848;42.016;23.098;2022-10-15T09:41:42;22.77;;;21.47;;
7613;SDS011;3848;42.016;23.098;2022-10-15T09:44:18;23.07;;;21.60;;
7613;SDS011;3848;42.016;23.098;2022-10-15T09:46:49;22.30;;;21.03;;
7613;SDS011;3848;42.016;23.098;2022-10-15T09:49:16;20.73;;;19.53;;
7613;SDS011;3848;42.016;23.098;2022-10-15T09:51:49;22.47;;;20.97;;
7613;SDS011;3848;42.016;23.098;2022-10-15T09:54:26;24.80;;;23.40;;
7613;SDS011;3848;42.016;23.098;2022-10-15T09:57:02;25.47;;;23.77;;
7613;SDS011;3848;42.016;23.098;2022-10-15T09:59:29;26.20;;;24.60;;
7613;SDS011;3848;42.016;23.098;2022-10-15T10:01:57;25.97;;;24.57;;
7613;SDS011;3848;42.016;23.098;2022-10-15T10:04:25;24.33;;;22.73;;
7613;SDS011;3848;42.016;23.098;2022-10-15T10:06:55;24.83;;;23.57;;
7613;SDS011;3848;42.016;23.098;2022-10-15T10:09:24;24.30;;;22.83;;
7613;SDS011;3848;42.016;23.098;2022-10-15T10:11:57;20.80;;;19.70;;
7613;SDS011;3848;42.016;23.098;2022-10-15T10:14:27;19.63;;;18.63;;
7613;SDS011;3848;42.016;23.098;2022-10-15T10:17:09;20.30;;;18.93;;
7613;SDS011;3848;42.016;23.098;2022-10-15T10:19:41;20.97;;;19.83;;
7613;SDS011;3848;42.016;23.098;2022-10-15T10:22:13;22.50;;;21.17;;
7613;SDS011;3848;42.016;23.098;2022-10-15T10:24:42;20.70;;;19.47;;
7613;SDS011;3848;42.016;23.098;2022-10-15T10:27:17;22.30;;;21.00;;
7613;SDS011;3848;42.016;23.098;2022-10-15T10:29:54;19.77;;;18.77;;
7613;SDS011;3848;42.016;23.098;2022-10-15T10:32:27;19.87;;;18.57;;
7613;SDS011;3848;42.016;23.098;2022-10-15T10:34:57;18.30;;;17.20;;
7613;SDS011;3848;42.016;23.098;2022-10-15T10:37:27;19.13;;;17.90;;
7613;SDS011;3848;42.016;23.098;2022-10-15T10:40:05;17.13;;;15.93;;
7613;SDS011;3848;42.016;23.098;2022-10-15T10:42:48;14.80;;;14.00;;
7613;SDS011;3848;42.016;23.098;2022-10-15T10:45:40;13.77;;;12.97;;
7613;SDS011;3848;42.016;23.098;2022-10-15T10:48:19;15.60;;;14.53;;
7613;SDS011;3848;42.016;23.098;2022-10-15T10:50:47;16.67;;;15.60;;
7613;SDS011;3848;42.016;23.098;2022-10-15T10:53:20;18.43;;;17.13;;
7613;SDS011;3848;42.016;23.098;2022-10-15T10:55:48;15.73;;;14.93;;
7613;SDS011;3848;42.016;23.098;2022-10-15T10:58:18;17.37;;;16.37;;
7613;SDS011;3848;42.016;23.098;2022-10-15T11:00:46;16.43;;;15.43;;
7613;SDS011;3848;42.016;23.098;2022-10-15T11:03:19;16.30;;;15.40;;
7613;SDS011;3848;42.016;23.098;2022-10-15T11:05:53;16.13;;;15.23;;
7613;SDS011;3848;42.016;23.098;2022-10-15T11:08:28;15.83;;;14.90;;
7613;SDS011;3848;42.016;23.098;2022-10-15T11:11:06;16.17;;;15.07;;
7613;SDS011;3848;42.016;23.098;2022-10-15T11:13:44;16.63;;;15.47;;
7613;SDS011;3848;42.016;23.098;2022-10-15T11:16:20;17.10;;;16.17;;
7613;SDS011;3848;42.016;23.098;2022-10-15T11:18:59;16.73;;;15.73;;
7613;SDS011;3848;42.016;23.098;2022-10-15T11:21:39;17.60;;;16.63;;
7613;SDS011;3848;42.016;23.098;2022-10-15T11:24:18;18.13;;;17.13;;
7613;SDS011;3848;42.016;23.098;2022-10-15T11:26:56;19.93;;;18.80;;
7613;SDS011;3848;42.016;23.098;2022-10-15T11:29:47;16.57;;;15.67;;
7613;SDS011;3848;42.016;23.098;2022-10-15T11:32:21;17.40;;;16.40;;
7613;SDS011;3848;42.016;23.098;2022-10-15T11:35:02;15.80;;;14.90;;
7613;SDS011;3848;42.016;23.098;2022-10-15T11:37:40;16.97;;;15.97;;
7613;SDS011;3848;42.016;23.098;2022-10-15T11:40:20;14.13;;;13.33;;
7613;SDS011;3848;42.016;23.098;2022-10-15T11:42:52;14.20;;;13.33;;
7613;SDS011;3848;42.016;23.098;2022-10-15T11:45:42;15.53;;;14.43;;
7613;SDS011;3848;42.016;23.098;2022-10-15T11:48:21;15.07;;;14.17;;
7613;SDS011;3848;42.016;23.098;2022-10-15T11:50:59;15.83;;;14.93;;
7613;SDS011;3848;42.016;23.098;2022-10-15T11:56:37;15.20;;;14.40;;
7613;SDS011;3848;42.016;23.098;2022-10-15T11:59:12;13.67;;;12.87;;
7613;SDS011;3848;42.016;23.098;2022-10-15T12:01:48;15.30;;;14.50;;
7613;SDS011;3848;42.016;23.098;2022-10-15T12:04:22;13.97;;;13.17;;
7613;SDS011;3848;42.016;23.098;2022-10-15T12:06:56;16.47;;;15.37;;
7613;SDS011;3848;42.016;23.098;2022-10-15T12:09:26;16.63;;;15.63;;
7613;SDS011;3848;42.016;23.098;2022-10-15T12:11:59;15.13;;;14.33;;
7613;SDS011;3848;42.016;23.098;2022-10-15T12:14:33;15.47;;;14.40;;
7613;SDS011;3848;42.016;23.098;2022-10-15T12:17:07;17.27;;;16.30;;
7613;SDS011;3848;42.016;23.098;2022-10-15T12:19:43;15.30;;;14.37;;
7613;SDS011;3848;42.016;23.098;2022-10-15T12:22:30;15.40;;;14.50;;
7613;SDS011;3848;42.016;23.098;2022-10-15T12:24:59;15.20;;;14.40;;
7613;SDS011;3848;42.016;23.098;2022-10-15T12:27:29;18.40;;;17.20;;
7613;SDS011;3848;42.016;23.098;2022-10-15T12:30:22;16.23;;;15.17;;
7613;SDS011;3848;42.016;23.098;2022-10-15T12:32:51;15.53;;;14.63;;
7613;SDS011;3848;42.016;23.098;2022-10-15T12:35:22;16.07;;;14.97;;
7613;SDS011;3848;42.016;23.098;2022-10-15T12:37:56;16.60;;;15.50;;
7613;SDS011;3848;42.016;23.098;2022-10-15T12:40:43;16.33;;;15.33;;
7613;SDS011;3848;42.016;23.098;2022-10-15T12:43:12;18.33;;;16.93;;
7613;SDS011;3848;42.016;23.098;2022-10-15T12:45:47;16.70;;;15.77;;
7613;SDS011;3848;42.016;23.098;2022-10-15T12:48:20;16.90;;;15.80;;
7613;SDS011;3848;42.016;23.098;2022-10-15T12:53:56;14.83;;;13.93;;
7613;SDS011;3848;42.016;23.098;2022-10-15T12:56:34;15.13;;;14.03;;
7613;SDS011;3848;42.016;23.098;2022-10-15T12:59:14;16.43;;;15.43;;
7613;SDS011;3848;42.016;23.098;2022-10-15T13:01:54;14.50;;;13.60;;
7613;SDS011;3848;42.016;23.098;2022-10-15T13:04:21;15.30;;;14.40;;
7613;SDS011;3848;42.016;23.098;2022-10-15T13:06:48;15.83;;;14.83;;
7613;SDS011;3848;42.016;23.098;2022-10-15T13:09:23;15.90;;;15.00;;
7613;SDS011;3848;42.016;23.098;2022-10-15T13:11:54;16.33;;;15.43;;
7613;SDS011;3848;42.016;23.098;2022-10-15T13:14:35;16.43;;;15.23;;
7613;SDS011;3848;42.016;23.098;2022-10-15T13:17:12;18.00;;;16.80;;
7613;SDS011;3848;42.016;23.098;2022-10-15T13:19:45;18.37;;;17.27;;
7613;SDS011;3848;42.016;23.098;2022-10-15T13:22:19;18.50;;;17.20;;
7613;SDS011;3848;42.016;23.098;2022-10-15T13:24:48;18.97;;;17.67;;
7613;SDS011;3848;42.016;23.098;2022-10-15T13:27:18;18.53;;;17.53;;
7613;SDS011;3848;42.016;23.098;2022-10-15T13:29:56;18.50;;;17.40;;
7613;SDS011;3848;42.016;23.098;2022-10-15T13:32:25;18.37;;;17.27;;
7613;SDS011;3848;42.016;23.098;2022-10-15T13:34:54;17.20;;;16.20;;
7613;SDS011;3848;42.016;23.098;2022-10-15T13:37:25;18.90;;;17.80;;
7613;SDS011;3848;42.016;23.098;2022-10-15T13:39:57;18.37;;;17.37;;
7613;SDS011;3848;42.016;23.098;2022-10-15T13:42:25;18.93;;;17.80;;
7613;SDS011;3848;42.016;23.098;2022-10-15T13:44:57;18.83;;;17.70;;
7613;SDS011;3848;42.016;23.098;2022-10-15T13:47:28;19.37;;;18.23;;
7613;SDS011;3848;42.016;23.098;2022-10-15T13:50:18;19.23;;;18.13;;
7613;SDS011;3848;42.016;23.098;2022-10-15T13:52:51;17.90;;;17.00;;
7613;SDS011;3848;42.016;23.098;2022-10-15T13:55:22;18.97;;;17.77;;
7613;SDS011;3848;42.016;23.098;2022-10-15T13:57:53;19.80;;;18.50;;
7613;SDS011;3848;42.016;23.098;2022-10-15T14:00:27;18.43;;;17.10;;
7613;SDS011;3848;42.016;23.098;2022-10-15T14:03:11;18.90;;;17.83;;
7613;SDS011;3848;42.016;23.098;2022-10-15T14:05:41;18.03;;;17.13;;
7613;SDS011;3848;42.016;23.098;2022-10-15T14:08:15;19.83;;;18.73;;
7613;SDS011;3848;42.016;23.098;2022-10-15T14:10:43;19.50;;;18.50;;
7613;SDS011;3848;42.016;23.098;2022-10-15T14:13:11;19.60;;;18.30;;
7613;SDS011;3848;42.016;23.098;2022-10-15T14:15:41;23.40;;;21.30;;
7613;SDS011;3848;42.016;23.098;2022-10-15T14:18:09;19.53;;;18.33;;
7613;SDS011;3848;42.016;23.098;2022-10-15T14:20:41;19.33;;;18.23;;
7613;SDS011;3848;42.016;23.098;2022-10-15T14:23:13;18.47;;;17.37;;
7613;SDS011;3848;42.016;23.098;2022-10-15T14:25:41;18.97;;;17.87;;
7613;SDS011;3848;42.016;23.098;2022-10-15T14:28:15;18.77;;;17.77;;
7613;SDS011;3848;42.016;23.098;2022-10-15T14:30:47;17.77;;;16.77;;
7613;SDS011;3848;42.016;23.098;2022-10-15T14:33:33;18.30;;;17.30;;
7613;SDS011;3848;42.016;23.098;2022-10-15T14:38:54;18.13;;;17.23;;
7613;SDS011;3848;42.016;23.098;2022-10-15T14:41:55;17.30;;;16.40;;
7613;SDS011;3848;42.016;23.098;2022-10-15T14:44:23;18.43;;;17.43;;
7613;SDS011;3848;42.016;23.098;2022-10-15T14:46:58;18.70;;;17.70;;
7613;SDS011;3848;42.016;23.098;2022-10-15T14:49:28;18.13;;;17.13;;
7613;SDS011;3848;42.016;23.098;2022-10-15T14:51:58;18.27;;;17.27;;
7613;SDS011;3848;42.016;23.098;2022-10-15T14:54:34;17.47;;;16.57;;
7613;SDS011;3848;42.016;23.098;2022-10-15T14:57:03;16.90;;;16.00;;
7613;SDS011;3848;42.016;23.098;2022-10-15T14:59:39;16.83;;;15.93;;
7613;SDS011;3848;42.016;23.098;2022-10-15T15:02:09;17.83;;;16.93;;
7613;SDS011;3848;42.016;23.098;2022-10-15T15:04:41;17.73;;;16.83;;
7613;SDS011;3848;42.016;23.098;2022-10-15T15:07:10;17.23;;;16.33;;
7613;SDS011;3848;42.016;23.098;2022-10-15T15:09:39;17.60;;;16.60;;
7613;SDS011;3848;42.016;23.098;2022-10-15T15:12:08;18.50;;;17.50;;